sensor_id;sensor_type;location;lat;lon;timestamp;P1;durP1;ratioP1;P2;durP2;ratioP2
6842;SDS011;3460;52.028;8.916;2023-07-13T00:00:52;5.57;;;2.27;;
6842;SDS011;3460;52.028;8.916;2023-07-13T00:03:22;3.00;;;1.90;;
6842;SDS011;3460;52.028;8.916;2023-07-13T00:05:56;3.40;;;1.70;;
6842;SDS011;3460;52.028;8.916;2023-07-13T00:08:24;5.83;;;1.70;;
6842;SDS011;3460;52.028;8.916;2023-07-13T00:10:51;3.30;;;1.97;;
6842;SDS011;3460;52.028;8.916;2023-07-13T00:13:19;3.87;;;2.43;;
6842;SDS011;3460;52.028;8.916;2023-07-13T00:15:46;2.70;;;1.83;;
6842;SDS011;3460;52.028;8.916;2023-07-13T00:18:13;3.20;;;2.23;;
6842;SDS011;3460;52.028;8.916;2023-07-13T00:20:41;5.77;;;2.07;;
6842;SDS011;3460;52.028;8.916;2023-07-13T00:23:08;7.07;;;2.10;;
6842;SDS011;3460;52.028;8.916;2023-07-13T00:25:35;4.23;;;2.13;;
6842;SDS011;3460;52.028;8.916;2023-07-13T00:28:02;4.77;;;2.07;;
6842;SDS011;3460;52.028;8.916;2023-07-13T00:30:29;3.40;;;1.90;;
6842;SDS011;3460;52.028;8.916;2023-07-13T00:32:56;4.53;;;2.00;;
6842;SDS011;3460;52.028;8.916;2023-07-13T00:35:25;3.60;;;2.00;;
6842;SDS011;3460;52.028;8.916;2023-07-13T00:37:53;6.13;;;1.93;;
6842;SDS011;3460;52.028;8.916;2023-07-13T00:40:21;4.77;;;1.63;;
6842;SDS011;3460;52.028;8.916;2023-07-13T00:42:48;3.57;;;1.87;;
6842;SDS011;3460;52.028;8.916;2023-07-13T00:48:23;7.03;;;2.00;;
6842;SDS011;3460;52.028;8.916;2023-07-13T00:50:54;6.30;;;2.20;;
6842;SDS011;3460;52.028;8.916;2023-07-13T00:53:26;4.30;;;1.90;;
6842;SDS011;3460;52.028;8.916;2023-07-13T00:55:55;5.03;;;1.97;;
6842;SDS011;3460;52.028;8.916;2023-07-13T00:58:23;5.33;;;2.23;;
6842;SDS011;3460;52.028;8.916;2023-07-13T01:00:51;4.87;;;2.50;;
6842;SDS011;3460;52.028;8.916;2023-07-13T01:03:18;5.10;;;2.87;;
6842;SDS011;3460;52.028;8.916;2023-07-13T01:05:46;5.43;;;2.00;;
6842;SDS011;3460;52.028;8.916;2023-07-13T01:08:15;4.37;;;1.87;;
6842;SDS011;3460;52.028;8.916;2023-07-13T01:10:51;3.87;;;2.10;;
6842;SDS011;3460;52.028;8.916;2023-07-13T01:13:18;3.70;;;1.83;;
6842;SDS011;3460;52.028;8.916;2023-07-13T01:15:46;4.73;;;2.00;;
6842;SDS011;3460;52.028;8.916;2023-07-13T01:18:15;4.10;;;2.07;;
6842;SDS011;3460;52.028;8.916;2023-07-13T01:20:49;4.23;;;2.10;;
6842;SDS011;3460;52.028;8.916;2023-07-13T01:23:17;2.67;;;1.83;;
6842;SDS011;3460;52.028;8.916;2023-07-13T01:25:45;5.13;;;1.97;;
6842;SDS011;3460;52.028;8.916;2023-07-13T01:28:12;5.50;;;2.33;;
6842;SDS011;3460;52.028;8.916;2023-07-13T01:30:39;3.70;;;1.93;;
6842;SDS011;3460;52.028;8.916;2023-07-13T01:33:06;4.07;;;1.93;;
6842;SDS011;3460;52.028;8.916;2023-07-13T01:35:34;2.93;;;1.87;;
6842;SDS011;3460;52.028;8.916;2023-07-13T01:38:03;7.27;;;2.00;;
6842;SDS011;3460;52.028;8.916;2023-07-13T01:40:31;2.93;;;2.07;;
6842;SDS011;3460;52.028;8.916;2023-07-13T01:42:58;5.27;;;1.90;;
6842;SDS011;3460;52.028;8.916;2023-07-13T01:45:25;7.53;;;1.87;;
6842;SDS011;3460;52.028;8.916;2023-07-13T01:47:52;3.10;;;2.00;;
6842;SDS011;3460;52.028;8.916;2023-07-13T01:50:18;6.60;;;2.03;;
6842;SDS011;3460;52.028;8.916;2023-07-13T01:52:45;4.30;;;2.13;;
6842;SDS011;3460;52.028;8.916;2023-07-13T01:55:14;2.37;;;2.00;;
6842;SDS011;3460;52.028;8.916;2023-07-13T01:57:40;4.30;;;2.20;;
6842;SDS011;3460;52.028;8.916;2023-07-13T02:00:08;3.20;;;2.40;;
6842;SDS011;3460;52.028;8.916;2023-07-13T02:02:37;4.33;;;2.20;;
6842;SDS011;3460;52.028;8.916;2023-07-13T02:05:04;4.13;;;2.30;;
6842;SDS011;3460;52.028;8.916;2023-07-13T02:07:31;3.70;;;2.10;;
6842;SDS011;3460;52.028;8.916;2023-07-13T02:09:58;5.43;;;2.30;;
6842;SDS011;3460;52.028;8.916;2023-07-13T02:12:26;5.17;;;2.30;;
6842;SDS011;3460;52.028;8.916;2023-07-13T02:14:53;5.63;;;2.07;;
6842;SDS011;3460;52.028;8.916;2023-07-13T02:17:20;4.90;;;2.30;;
6842;SDS011;3460;52.028;8.916;2023-07-13T02:19:47;7.47;;;2.40;;
6842;SDS011;3460;52.028;8.916;2023-07-13T02:22:14;3.40;;;2.10;;
6842;SDS011;3460;52.028;8.916;2023-07-13T02:24:41;5.23;;;2.23;;
6842;SDS011;3460;52.028;8.916;2023-07-13T02:27:07;4.13;;;2.20;;
6842;SDS011;3460;52.028;8.916;2023-07-13T02:29:36;4.30;;;2.10;;
6842;SDS011;3460;52.028;8.916;2023-07-13T02:32:03;2.90;;;1.77;;
6842;SDS011;3460;52.028;8.916;2023-07-13T02:34:30;5.20;;;2.33;;
6842;SDS011;3460;52.028;8.916;2023-07-13T02:36:57;4.17;;;2.20;;
6842;SDS011;3460;52.028;8.916;2023-07-13T02:39:24;4.93;;;2.20;;
6842;SDS011;3460;52.028;8.916;2023-07-13T02:41:51;3.17;;;1.90;;
6842;SDS011;3460;52.028;8.916;2023-07-13T02:44:17;6.60;;;2.50;;
6842;SDS011;3460;52.028;8.916;2023-07-13T02:46:45;5.10;;;2.07;;
6842;SDS011;3460;52.028;8.916;2023-07-13T02:49:12;3.47;;;2.40;;
6842;SDS011;3460;52.028;8.916;2023-07-13T02:51:39;5.20;;;2.00;;
6842;SDS011;3460;52.028;8.916;2023-07-13T02:54:06;5.10;;;2.17;;
6842;SDS011;3460;52.028;8.916;2023-07-13T02:56:33;4.13;;;2.17;;
6842;SDS011;3460;52.028;8.916;2023-07-13T02:59:00;6.13;;;2.10;;
6842;SDS011;3460;52.028;8.916;2023-07-13T03:01:27;6.07;;;2.10;;
6842;SDS011;3460;52.028;8.916;2023-07-13T03:03:55;3.23;;;2.37;;
6842;SDS011;3460;52.028;8.916;2023-07-13T03:06:22;2.47;;;1.67;;
6842;SDS011;3460;52.028;8.916;2023-07-13T03:08:49;3.30;;;1.80;;
6842;SDS011;3460;52.028;8.916;2023-07-13T03:11:17;4.00;;;2.20;;
6842;SDS011;3460;52.028;8.916;2023-07-13T03:13:45;3.77;;;2.00;;
6842;SDS011;3460;52.028;8.916;2023-07-13T03:16:13;5.37;;;2.00;;
6842;SDS011;3460;52.028;8.916;2023-07-13T03:18:41;3.17;;;2.13;;
6842;SDS011;3460;52.028;8.916;2023-07-13T03:21:10;4.03;;;2.27;;
6842;SDS011;3460;52.028;8.916;2023-07-13T03:23:37;2.37;;;1.90;;
6842;SDS011;3460;52.028;8.916;2023-07-13T03:26:04;6.30;;;2.20;;
6842;SDS011;3460;52.028;8.916;2023-07-13T03:28:32;5.47;;;2.27;;
6842;SDS011;3460;52.028;8.916;2023-07-13T03:31:00;3.90;;;2.50;;
6842;SDS011;3460;52.028;8.916;2023-07-13T03:33:28;4.67;;;2.40;;
6842;SDS011;3460;52.028;8.916;2023-07-13T03:35:55;7.73;;;2.70;;
6842;SDS011;3460;52.028;8.916;2023-07-13T03:38:23;6.67;;;2.70;;
6842;SDS011;3460;52.028;8.916;2023-07-13T03:40:51;5.57;;;2.93;;
6842;SDS011;3460;52.028;8.916;2023-07-13T03:43:18;6.90;;;2.90;;
6842;SDS011;3460;52.028;8.916;2023-07-13T03:45:45;6.60;;;2.67;;
6842;SDS011;3460;52.028;8.916;2023-07-13T03:48:12;6.77;;;2.90;;
6842;SDS011;3460;52.028;8.916;2023-07-13T03:50:40;8.50;;;3.20;;
6842;SDS011;3460;52.028;8.916;2023-07-13T03:53:07;4.93;;;3.23;;
6842;SDS011;3460;52.028;8.916;2023-07-13T03:55:35;4.00;;;2.90;;
6842;SDS011;3460;52.028;8.916;2023-07-13T04:00:51;6.93;;;3.23;;
6842;SDS011;3460;52.028;8.916;2023-07-13T04:03:18;6.67;;;3.10;;
6842;SDS011;3460;52.028;8.916;2023-07-13T04:05:45;5.87;;;3.00;;
6842;SDS011;3460;52.028;8.916;2023-07-13T04:08:12;5.57;;;3.10;;
6842;SDS011;3460;52.028;8.916;2023-07-13T04:10:40;5.60;;;3.07;;
6842;SDS011;3460;52.028;8.916;2023-07-13T04:13:08;10.40;;;3.03;;
6842;SDS011;3460;52.028;8.916;2023-07-13T04:15:35;5.63;;;2.87;;
6842;SDS011;3460;52.028;8.916;2023-07-13T04:18:01;4.90;;;2.57;;
6842;SDS011;3460;52.028;8.916;2023-07-13T04:20:29;9.20;;;3.00;;
6842;SDS011;3460;52.028;8.916;2023-07-13T04:22:56;4.80;;;2.70;;
6842;SDS011;3460;52.028;8.916;2023-07-13T04:25:23;6.63;;;2.70;;
6842;SDS011;3460;52.028;8.916;2023-07-13T04:27:52;5.37;;;2.40;;
6842;SDS011;3460;52.028;8.916;2023-07-13T04:30:19;6.13;;;2.27;;
6842;SDS011;3460;52.028;8.916;2023-07-13T04:32:46;4.50;;;1.93;;
6842;SDS011;3460;52.028;8.916;2023-07-13T04:35:14;6.00;;;1.90;;
6842;SDS011;3460;52.028;8.916;2023-07-13T04:37:40;4.77;;;2.07;;
6842;SDS011;3460;52.028;8.916;2023-07-13T04:40:07;3.87;;;1.70;;
6842;SDS011;3460;52.028;8.916;2023-07-13T04:42:37;4.43;;;1.87;;
6842;SDS011;3460;52.028;8.916;2023-07-13T04:45:05;5.00;;;1.77;;
6842;SDS011;3460;52.028;8.916;2023-07-13T04:47:33;3.87;;;1.93;;
6842;SDS011;3460;52.028;8.916;2023-07-13T04:50:00;5.10;;;2.00;;
6842;SDS011;3460;52.028;8.916;2023-07-13T04:52:27;4.53;;;2.10;;
6842;SDS011;3460;52.028;8.916;2023-07-13T04:54:54;7.63;;;1.90;;
6842;SDS011;3460;52.028;8.916;2023-07-13T04:57:20;6.73;;;1.87;;
6842;SDS011;3460;52.028;8.916;2023-07-13T04:59:47;3.53;;;1.70;;
6842;SDS011;3460;52.028;8.916;2023-07-13T05:02:15;3.43;;;1.60;;
6842;SDS011;3460;52.028;8.916;2023-07-13T05:04:42;5.43;;;1.73;;
6842;SDS011;3460;52.028;8.916;2023-07-13T05:07:12;5.97;;;1.70;;
6842;SDS011;3460;52.028;8.916;2023-07-13T05:09:39;7.57;;;1.90;;
6842;SDS011;3460;52.028;8.916;2023-07-13T05:12:06;6.07;;;1.80;;
6842;SDS011;3460;52.028;8.916;2023-07-13T05:14:34;4.33;;;1.70;;
6842;SDS011;3460;52.028;8.916;2023-07-13T05:17:01;6.53;;;1.93;;
6842;SDS011;3460;52.028;8.916;2023-07-13T05:19:30;4.07;;;1.57;;
6842;SDS011;3460;52.028;8.916;2023-07-13T05:21:57;5.17;;;2.17;;
6842;SDS011;3460;52.028;8.916;2023-07-13T05:24:23;4.13;;;1.70;;
6842;SDS011;3460;52.028;8.916;2023-07-13T05:26:50;4.63;;;2.00;;
6842;SDS011;3460;52.028;8.916;2023-07-13T05:29:18;5.03;;;1.80;;
6842;SDS011;3460;52.028;8.916;2023-07-13T05:31:45;2.50;;;1.60;;
6842;SDS011;3460;52.028;8.916;2023-07-13T05:34:12;7.73;;;1.90;;
6842;SDS011;3460;52.028;8.916;2023-07-13T05:36:41;8.07;;;1.80;;
6842;SDS011;3460;52.028;8.916;2023-07-13T05:39:07;4.77;;;1.63;;
6842;SDS011;3460;52.028;8.916;2023-07-13T05:41:35;5.03;;;1.77;;
6842;SDS011;3460;52.028;8.916;2023-07-13T05:44:02;3.63;;;1.60;;
6842;SDS011;3460;52.028;8.916;2023-07-13T05:46:29;4.13;;;1.73;;
6842;SDS011;3460;52.028;8.916;2023-07-13T05:48:56;3.70;;;1.60;;
6842;SDS011;3460;52.028;8.916;2023-07-13T05:51:22;3.37;;;1.73;;
6842;SDS011;3460;52.028;8.916;2023-07-13T05:53:51;6.33;;;1.80;;
6842;SDS011;3460;52.028;8.916;2023-07-13T05:56:17;6.80;;;1.70;;
6842;SDS011;3460;52.028;8.916;2023-07-13T05:58:44;7.87;;;2.10;;
6842;SDS011;3460;52.028;8.916;2023-07-13T06:01:12;8.73;;;2.00;;
6842;SDS011;3460;52.028;8.916;2023-07-13T06:03:41;4.33;;;1.53;;
6842;SDS011;3460;52.028;8.916;2023-07-13T06:06:09;5.77;;;1.90;;
6842;SDS011;3460;52.028;8.916;2023-07-13T06:08:36;5.43;;;1.80;;
6842;SDS011;3460;52.028;8.916;2023-07-13T06:11:05;6.33;;;1.67;;
6842;SDS011;3460;52.028;8.916;2023-07-13T06:13:34;7.13;;;1.70;;
6842;SDS011;3460;52.028;8.916;2023-07-13T06:16:02;4.77;;;1.70;;
6842;SDS011;3460;52.028;8.916;2023-07-13T06:18:30;6.03;;;1.70;;
6842;SDS011;3460;52.028;8.916;2023-07-13T06:20:57;5.23;;;1.70;;
6842;SDS011;3460;52.028;8.916;2023-07-13T06:23:24;5.63;;;1.50;;
6842;SDS011;3460;52.028;8.916;2023-07-13T06:25:51;6.37;;;1.50;;
6842;SDS011;3460;52.028;8.916;2023-07-13T06:28:19;5.33;;;1.70;;
6842;SDS011;3460;52.028;8.916;2023-07-13T06:30:46;4.77;;;1.70;;
6842;SDS011;3460;52.028;8.916;2023-07-13T06:33:13;4.83;;;1.50;;
6842;SDS011;3460;52.028;8.916;2023-07-13T06:35:40;4.77;;;1.77;;
6842;SDS011;3460;52.028;8.916;2023-07-13T06:38:06;4.13;;;1.77;;
6842;SDS011;3460;52.028;8.916;2023-07-13T06:40:33;5.40;;;1.50;;
6842;SDS011;3460;52.028;8.916;2023-07-13T06:43:00;7.00;;;2.07;;
6842;SDS011;3460;52.028;8.916;2023-07-13T06:45:28;6.13;;;1.57;;
6842;SDS011;3460;52.028;8.916;2023-07-13T06:47:55;6.53;;;1.60;;
6842;SDS011;3460;52.028;8.916;2023-07-13T06:50:22;4.30;;;1.70;;
6842;SDS011;3460;52.028;8.916;2023-07-13T06:52:48;6.90;;;1.70;;
6842;SDS011;3460;52.028;8.916;2023-07-13T06:55:15;6.23;;;1.57;;
6842;SDS011;3460;52.028;8.916;2023-07-13T06:57:42;6.13;;;1.53;;
6842;SDS011;3460;52.028;8.916;2023-07-13T07:00:10;6.30;;;1.70;;
6842;SDS011;3460;52.028;8.916;2023-07-13T07:02:39;7.33;;;1.83;;
6842;SDS011;3460;52.028;8.916;2023-07-13T07:05:05;8.60;;;2.27;;
6842;SDS011;3460;52.028;8.916;2023-07-13T07:07:32;3.27;;;1.60;;
6842;SDS011;3460;52.028;8.916;2023-07-13T07:09:59;6.50;;;1.70;;
6842;SDS011;3460;52.028;8.916;2023-07-13T07:12:26;11.07;;;2.00;;
6842;SDS011;3460;52.028;8.916;2023-07-13T07:14:53;8.87;;;2.30;;
6842;SDS011;3460;52.028;8.916;2023-07-13T07:17:20;7.37;;;2.00;;
6842;SDS011;3460;52.028;8.916;2023-07-13T07:19:48;4.43;;;1.90;;
6842;SDS011;3460;52.028;8.916;2023-07-13T07:22:15;4.80;;;1.90;;
6842;SDS011;3460;52.028;8.916;2023-07-13T07:24:42;7.90;;;2.37;;
6842;SDS011;3460;52.028;8.916;2023-07-13T07:27:08;7.27;;;2.30;;
6842;SDS011;3460;52.028;8.916;2023-07-13T07:29:35;6.17;;;2.43;;
6842;SDS011;3460;52.028;8.916;2023-07-13T07:32:02;7.10;;;2.37;;
6842;SDS011;3460;52.028;8.916;2023-07-13T07:34:30;8.47;;;2.50;;
6842;SDS011;3460;52.028;8.916;2023-07-13T07:36:59;5.90;;;2.43;;
6842;SDS011;3460;52.028;8.916;2023-07-13T07:39:26;9.23;;;2.50;;
6842;SDS011;3460;52.028;8.916;2023-07-13T07:41:53;4.33;;;1.97;;
6842;SDS011;3460;52.028;8.916;2023-07-13T07:44:20;9.10;;;2.10;;
6842;SDS011;3460;52.028;8.916;2023-07-13T07:46:47;4.67;;;2.13;;
6842;SDS011;3460;52.028;8.916;2023-07-13T07:49:14;4.93;;;1.80;;
6842;SDS011;3460;52.028;8.916;2023-07-13T07:51:41;7.93;;;2.13;;
6842;SDS011;3460;52.028;8.916;2023-07-13T07:54:09;7.23;;;2.20;;
6842;SDS011;3460;52.028;8.916;2023-07-13T07:56:36;6.73;;;2.13;;
6842;SDS011;3460;52.028;8.916;2023-07-13T07:59:02;5.70;;;1.60;;
6842;SDS011;3460;52.028;8.916;2023-07-13T08:01:29;6.40;;;1.90;;
6842;SDS011;3460;52.028;8.916;2023-07-13T08:03:56;8.00;;;1.80;;
6842;SDS011;3460;52.028;8.916;2023-07-13T08:06:23;8.23;;;2.27;;
6842;SDS011;3460;52.028;8.916;2023-07-13T08:08:50;5.87;;;1.87;;
6842;SDS011;3460;52.028;8.916;2023-07-13T08:11:18;7.93;;;1.90;;
6842;SDS011;3460;52.028;8.916;2023-07-13T08:13:46;10.17;;;2.00;;
6842;SDS011;3460;52.028;8.916;2023-07-13T08:16:13;5.03;;;2.00;;
6842;SDS011;3460;52.028;8.916;2023-07-13T08:18:40;6.77;;;1.87;;
6842;SDS011;3460;52.028;8.916;2023-07-13T08:21:07;7.00;;;1.90;;
6842;SDS011;3460;52.028;8.916;2023-07-13T08:23:34;7.87;;;1.93;;
6842;SDS011;3460;52.028;8.916;2023-07-13T08:26:02;7.93;;;1.83;;
6842;SDS011;3460;52.028;8.916;2023-07-13T08:28:30;5.90;;;1.90;;
6842;SDS011;3460;52.028;8.916;2023-07-13T08:31:00;4.50;;;1.67;;
6842;SDS011;3460;52.028;8.916;2023-07-13T08:33:27;4.33;;;2.10;;
6842;SDS011;3460;52.028;8.916;2023-07-13T08:35:54;5.00;;;2.03;;
6842;SDS011;3460;52.028;8.916;2023-07-13T08:38:21;8.90;;;2.30;;
6842;SDS011;3460;52.028;8.916;2023-07-13T08:40:49;4.73;;;2.07;;
6842;SDS011;3460;52.028;8.916;2023-07-13T08:43:19;5.80;;;1.90;;
6842;SDS011;3460;52.028;8.916;2023-07-13T08:45:53;5.67;;;2.13;;
6842;SDS011;3460;52.028;8.916;2023-07-13T08:48:27;7.00;;;2.33;;
6842;SDS011;3460;52.028;8.916;2023-07-13T08:51:00;4.77;;;2.03;;
6842;SDS011;3460;52.028;8.916;2023-07-13T08:53:33;6.33;;;2.20;;
6842;SDS011;3460;52.028;8.916;2023-07-13T08:56:03;7.17;;;2.23;;
6842;SDS011;3460;52.028;8.916;2023-07-13T08:58:35;5.27;;;2.17;;
6842;SDS011;3460;52.028;8.916;2023-07-13T09:01:06;6.88;;;2.22;;
6842;SDS011;3460;52.028;8.916;2023-07-13T09:03:43;6.70;;;2.10;;
6842;SDS011;3460;52.028;8.916;2023-07-13T09:06:20;6.32;;;2.25;;
6842;SDS011;3460;52.028;8.916;2023-07-13T09:08:55;5.28;;;2.03;;
6842;SDS011;3460;52.028;8.916;2023-07-13T09:11:31;4.32;;;2.20;;
6842;SDS011;3460;52.028;8.916;2023-07-13T09:14:10;5.60;;;2.13;;
6842;SDS011;3460;52.028;8.916;2023-07-13T09:16:59;8.23;;;2.17;;
6842;SDS011;3460;52.028;8.916;2023-07-13T09:19:30;5.60;;;2.35;;
6842;SDS011;3460;52.028;8.916;2023-07-13T09:22:01;5.43;;;2.15;;
6842;SDS011;3460;52.028;8.916;2023-07-13T09:24:35;5.97;;;2.22;;
6842;SDS011;3460;52.028;8.916;2023-07-13T09:27:08;7.75;;;2.40;;
6842;SDS011;3460;52.028;8.916;2023-07-13T09:29:42;5.03;;;1.77;;
6842;SDS011;3460;52.028;8.916;2023-07-13T09:32:15;7.15;;;2.08;;
6842;SDS011;3460;52.028;8.916;2023-07-13T09:34:50;5.85;;;2.30;;
6842;SDS011;3460;52.028;8.916;2023-07-13T09:37:19;5.60;;;2.08;;
6842;SDS011;3460;52.028;8.916;2023-07-13T09:39:47;4.43;;;1.75;;
6842;SDS011;3460;52.028;8.916;2023-07-13T09:42:18;7.85;;;2.00;;
6842;SDS011;3460;52.028;8.916;2023-07-13T09:44:51;4.55;;;1.77;;
6842;SDS011;3460;52.028;8.916;2023-07-13T09:47:21;3.80;;;1.63;;
6842;SDS011;3460;52.028;8.916;2023-07-13T09:49:54;5.43;;;1.90;;
6842;SDS011;3460;52.028;8.916;2023-07-13T09:52:23;3.75;;;1.95;;
6842;SDS011;3460;52.028;8.916;2023-07-13T09:54:51;5.15;;;1.60;;
6842;SDS011;3460;52.028;8.916;2023-07-13T09:57:22;4.10;;;1.80;;
6842;SDS011;3460;52.028;8.916;2023-07-13T09:59:51;5.00;;;2.13;;
6842;SDS011;3460;52.028;8.916;2023-07-13T10:02:29;4.13;;;1.65;;
6842;SDS011;3460;52.028;8.916;2023-07-13T10:04:58;4.63;;;1.60;;
6842;SDS011;3460;52.028;8.916;2023-07-13T10:07:28;5.10;;;1.90;;
6842;SDS011;3460;52.028;8.916;2023-07-13T10:09:56;5.18;;;1.90;;
6842;SDS011;3460;52.028;8.916;2023-07-13T10:12:25;5.32;;;1.70;;
6842;SDS011;3460;52.028;8.916;2023-07-13T10:14:55;2.83;;;1.50;;
6842;SDS011;3460;52.028;8.916;2023-07-13T10:17:25;4.45;;;1.80;;
6842;SDS011;3460;52.028;8.916;2023-07-13T10:19:57;4.68;;;1.73;;
6842;SDS011;3460;52.028;8.916;2023-07-13T10:22:29;4.07;;;1.70;;
6842;SDS011;3460;52.028;8.916;2023-07-13T10:25:07;5.75;;;1.70;;
6842;SDS011;3460;52.028;8.916;2023-07-13T10:27:44;6.78;;;2.10;;
6842;SDS011;3460;52.028;8.916;2023-07-13T10:30:13;4.22;;;1.90;;
6842;SDS011;3460;52.028;8.916;2023-07-13T10:32:45;4.18;;;1.95;;
6842;SDS011;3460;52.028;8.916;2023-07-13T10:35:15;4.20;;;2.00;;
6842;SDS011;3460;52.028;8.916;2023-07-13T10:37:45;5.22;;;2.13;;
6842;SDS011;3460;52.028;8.916;2023-07-13T10:40:18;3.55;;;1.60;;
6842;SDS011;3460;52.028;8.916;2023-07-13T10:42:50;6.18;;;2.05;;
6842;SDS011;3460;52.028;8.916;2023-07-13T10:45:19;5.35;;;2.10;;
6842;SDS011;3460;52.028;8.916;2023-07-13T10:47:48;4.40;;;1.70;;
6842;SDS011;3460;52.028;8.916;2023-07-13T10:50:21;3.85;;;2.00;;
6842;SDS011;3460;52.028;8.916;2023-07-13T10:52:51;3.50;;;1.60;;
6842;SDS011;3460;52.028;8.916;2023-07-13T10:55:36;2.92;;;1.80;;
6842;SDS011;3460;52.028;8.916;2023-07-13T10:58:11;6.78;;;2.10;;
6842;SDS011;3460;52.028;8.916;2023-07-13T11:00:43;3.88;;;1.80;;
6842;SDS011;3460;52.028;8.916;2023-07-13T11:03:16;9.63;;;2.05;;
6842;SDS011;3460;52.028;8.916;2023-07-13T11:05:49;5.40;;;2.13;;
6842;SDS011;3460;52.028;8.916;2023-07-13T11:08:32;4.97;;;2.00;;
6842;SDS011;3460;52.028;8.916;2023-07-13T11:11:01;3.72;;;2.10;;
6842;SDS011;3460;52.028;8.916;2023-07-13T11:13:37;3.97;;;2.00;;
6842;SDS011;3460;52.028;8.916;2023-07-13T11:16:36;4.38;;;2.05;;
6842;SDS011;3460;52.028;8.916;2023-07-13T11:19:23;4.03;;;2.00;;
6842;SDS011;3460;52.028;8.916;2023-07-13T11:22:13;4.25;;;1.95;;
6842;SDS011;3460;52.028;8.916;2023-07-13T11:24:52;4.70;;;2.25;;
6842;SDS011;3460;52.028;8.916;2023-07-13T11:27:30;5.57;;;1.98;;
6842;SDS011;3460;52.028;8.916;2023-07-13T11:30:13;6.55;;;2.20;;
6842;SDS011;3460;52.028;8.916;2023-07-13T11:33:02;5.07;;;2.50;;
6842;SDS011;3460;52.028;8.916;2023-07-13T11:35:38;6.05;;;2.20;;
6842;SDS011;3460;52.028;8.916;2023-07-13T11:38:17;5.10;;;2.50;;
6842;SDS011;3460;52.028;8.916;2023-07-13T11:40:47;6.03;;;2.22;;
6842;SDS011;3460;52.028;8.916;2023-07-13T11:43:16;9.30;;;2.50;;
6842;SDS011;3460;52.028;8.916;2023-07-13T11:45:43;4.88;;;2.35;;
6842;SDS011;3460;52.028;8.916;2023-07-13T11:48:20;6.97;;;2.55;;
6842;SDS011;3460;52.028;8.916;2023-07-13T11:50:50;5.40;;;2.40;;
6842;SDS011;3460;52.028;8.916;2023-07-13T11:53:21;4.60;;;2.47;;
6842;SDS011;3460;52.028;8.916;2023-07-13T11:55:51;6.63;;;2.22;;
6842;SDS011;3460;52.028;8.916;2023-07-13T11:58:19;2.58;;;1.80;;
6842;SDS011;3460;52.028;8.916;2023-07-13T12:00:49;4.60;;;2.10;;
6842;SDS011;3460;52.028;8.916;2023-07-13T12:03:20;3.00;;;2.08;;
6842;SDS011;3460;52.028;8.916;2023-07-13T12:06:00;7.65;;;2.70;;
6842;SDS011;3460;52.028;8.916;2023-07-13T12:08:37;4.45;;;2.40;;
6842;SDS011;3460;52.028;8.916;2023-07-13T12:11:04;6.57;;;2.72;;
6842;SDS011;3460;52.028;8.916;2023-07-13T12:13:38;3.00;;;1.80;;
6842;SDS011;3460;52.028;8.916;2023-07-13T12:16:11;5.57;;;2.40;;
6842;SDS011;3460;52.028;8.916;2023-07-13T12:18:40;6.97;;;2.30;;
6842;SDS011;3460;52.028;8.916;2023-07-13T12:21:11;5.45;;;2.13;;
6842;SDS011;3460;52.028;8.916;2023-07-13T12:23:42;6.35;;;1.88;;
6842;SDS011;3460;52.028;8.916;2023-07-13T12:26:10;3.50;;;1.63;;
6842;SDS011;3460;52.028;8.916;2023-07-13T12:28:43;4.97;;;1.70;;
6842;SDS011;3460;52.028;8.916;2023-07-13T12:33:59;3.60;;;1.60;;
6842;SDS011;3460;52.028;8.916;2023-07-13T12:36:29;5.35;;;1.75;;
6842;SDS011;3460;52.028;8.916;2023-07-13T12:39:01;6.28;;;1.73;;
6842;SDS011;3460;52.028;8.916;2023-07-13T12:41:36;7.63;;;2.58;;
6842;SDS011;3460;52.028;8.916;2023-07-13T12:44:03;4.18;;;2.25;;
6842;SDS011;3460;52.028;8.916;2023-07-13T12:46:34;5.47;;;2.67;;
6842;SDS011;3460;52.028;8.916;2023-07-13T12:49:04;5.05;;;2.05;;
6842;SDS011;3460;52.028;8.916;2023-07-13T12:51:33;5.50;;;1.85;;
6842;SDS011;3460;52.028;8.916;2023-07-13T12:54:08;6.32;;;2.38;;
6842;SDS011;3460;52.028;8.916;2023-07-13T12:56:41;3.15;;;1.92;;
6842;SDS011;3460;52.028;8.916;2023-07-13T12:59:11;5.65;;;2.20;;
6842;SDS011;3460;52.028;8.916;2023-07-13T13:01:44;7.07;;;2.50;;
6842;SDS011;3460;52.028;8.916;2023-07-13T13:04:12;4.97;;;1.70;;
6842;SDS011;3460;52.028;8.916;2023-07-13T13:06:39;7.18;;;2.28;;
6842;SDS011;3460;52.028;8.916;2023-07-13T13:09:11;3.92;;;2.20;;
6842;SDS011;3460;52.028;8.916;2023-07-13T13:11:39;4.15;;;2.10;;
6842;SDS011;3460;52.028;8.916;2023-07-13T13:14:06;2.88;;;1.90;;
6842;SDS011;3460;52.028;8.916;2023-07-13T13:16:34;3.08;;;1.75;;
6842;SDS011;3460;52.028;8.916;2023-07-13T13:19:08;7.45;;;2.05;;
6842;SDS011;3460;52.028;8.916;2023-07-13T13:21:39;4.55;;;2.08;;
6842;SDS011;3460;52.028;8.916;2023-07-13T13:24:10;3.20;;;1.65;;
6842;SDS011;3460;52.028;8.916;2023-07-13T13:26:38;5.28;;;2.03;;
6842;SDS011;3460;52.028;8.916;2023-07-13T13:29:09;5.32;;;2.00;;
6842;SDS011;3460;52.028;8.916;2023-07-13T13:31:42;3.83;;;1.90;;
6842;SDS011;3460;52.028;8.916;2023-07-13T13:34:10;3.97;;;2.05;;
6842;SDS011;3460;52.028;8.916;2023-07-13T13:36:38;3.83;;;1.90;;
6842;SDS011;3460;52.028;8.916;2023-07-13T13:39:15;3.55;;;2.13;;
6842;SDS011;3460;52.028;8.916;2023-07-13T13:41:47;3.97;;;1.85;;
6842;SDS011;3460;52.028;8.916;2023-07-13T13:44:15;2.03;;;1.77;;
6842;SDS011;3460;52.028;8.916;2023-07-13T13:46:43;5.18;;;2.05;;
6842;SDS011;3460;52.028;8.916;2023-07-13T13:49:12;4.47;;;2.70;;
6842;SDS011;3460;52.028;8.916;2023-07-13T13:51:41;3.53;;;1.77;;
6842;SDS011;3460;52.028;8.916;2023-07-13T13:54:09;3.30;;;1.83;;
6842;SDS011;3460;52.028;8.916;2023-07-13T13:56:41;2.90;;;1.80;;
6842;SDS011;3460;52.028;8.916;2023-07-13T13:59:08;3.45;;;1.67;;
6842;SDS011;3460;52.028;8.916;2023-07-13T14:01:35;2.35;;;1.60;;
6842;SDS011;3460;52.028;8.916;2023-07-13T14:04:02;3.67;;;2.10;;
6842;SDS011;3460;52.028;8.916;2023-07-13T14:06:30;3.90;;;2.03;;
6842;SDS011;3460;52.028;8.916;2023-07-13T14:08:57;5.78;;;2.42;;
6842;SDS011;3460;52.028;8.916;2023-07-13T14:11:26;4.35;;;1.80;;
6842;SDS011;3460;52.028;8.916;2023-07-13T14:13:54;5.05;;;1.70;;
6842;SDS011;3460;52.028;8.916;2023-07-13T14:16:29;5.32;;;1.40;;
6842;SDS011;3460;52.028;8.916;2023-07-13T14:18:57;2.75;;;1.42;;
6842;SDS011;3460;52.028;8.916;2023-07-13T14:21:25;4.05;;;1.60;;
6842;SDS011;3460;52.028;8.916;2023-07-13T14:23:53;9.23;;;1.83;;
6842;SDS011;3460;52.028;8.916;2023-07-13T14:26:21;6.97;;;2.30;;
6842;SDS011;3460;52.028;8.916;2023-07-13T14:28:51;5.17;;;2.10;;
6842;SDS011;3460;52.028;8.916;2023-07-13T14:31:19;3.23;;;1.70;;
6842;SDS011;3460;52.028;8.916;2023-07-13T14:33:46;5.20;;;1.80;;
6842;SDS011;3460;52.028;8.916;2023-07-13T14:36:19;3.43;;;1.80;;
6842;SDS011;3460;52.028;8.916;2023-07-13T14:38:50;4.60;;;1.83;;
6842;SDS011;3460;52.028;8.916;2023-07-13T14:41:17;3.10;;;1.90;;
6842;SDS011;3460;52.028;8.916;2023-07-13T14:43:44;2.43;;;1.90;;
6842;SDS011;3460;52.028;8.916;2023-07-13T14:46:16;3.70;;;1.70;;
6842;SDS011;3460;52.028;8.916;2023-07-13T14:48:50;4.07;;;2.17;;
6842;SDS011;3460;52.028;8.916;2023-07-13T14:51:17;3.43;;;2.00;;
6842;SDS011;3460;52.028;8.916;2023-07-13T14:53:44;3.90;;;2.20;;
6842;SDS011;3460;52.028;8.916;2023-07-13T14:56:13;2.33;;;1.97;;
6842;SDS011;3460;52.028;8.916;2023-07-13T14:58:42;3.47;;;2.10;;
6842;SDS011;3460;52.028;8.916;2023-07-13T15:01:09;2.13;;;1.90;;
6842;SDS011;3460;52.028;8.916;2023-07-13T15:03:41;3.87;;;2.00;;
6842;SDS011;3460;52.028;8.916;2023-07-13T15:06:11;4.93;;;2.53;;
6842;SDS011;3460;52.028;8.916;2023-07-13T15:08:39;4.03;;;2.20;;
6842;SDS011;3460;52.028;8.916;2023-07-13T15:11:06;3.13;;;2.17;;
6842;SDS011;3460;52.028;8.916;2023-07-13T15:13:33;4.07;;;2.20;;
6842;SDS011;3460;52.028;8.916;2023-07-13T15:16:00;5.23;;;2.50;;
6842;SDS011;3460;52.028;8.916;2023-07-13T15:18:29;4.10;;;2.30;;
6842;SDS011;3460;52.028;8.916;2023-07-13T15:20:58;3.60;;;2.40;;
6842;SDS011;3460;52.028;8.916;2023-07-13T15:23:27;4.30;;;2.50;;
6842;SDS011;3460;52.028;8.916;2023-07-13T15:25:54;5.53;;;2.80;;
6842;SDS011;3460;52.028;8.916;2023-07-13T15:28:21;5.13;;;2.47;;
6842;SDS011;3460;52.028;8.916;2023-07-13T15:30:49;4.27;;;2.60;;
6842;SDS011;3460;52.028;8.916;2023-07-13T15:33:16;3.90;;;2.00;;
6842;SDS011;3460;52.028;8.916;2023-07-13T15:35:48;2.53;;;1.80;;